Knickerbocker — WDC7987 — position and weather

sailwx.info

Track history (hours):
 
Tides and Currents Weather Stations Pressure Air Temp Water Temp Dewpoint Dewpoint Depression Visibility Wind Speed Wind Dir Waves Ship Positions

Knickerbocker

Owner: Christopher Corp., Newport, RI. More information available from US FCC via Universal Licensing System and Coast Guard Vessel Documentation Center.

Last reported at 2017-Jun-22 19:46 UTC. Time now 2017-Jun-26 14:07 UTC.
Position N 40°50' W 073°46'.

Length 36 m; draft 3.6 m.

Type: Sailing vessel. MMSI: 367079960.

Date/timePositionNaut miles runAvg speedWind from/ knotsBaromVisibWave heightAir tempDewpointWater temp
2017-Jun-22 19:46N 40°50' W 073°46'2 8.9
2017-Jun-22 19:29N 40°48' W 073°48'4 9.2
2017-Jun-22 19:00N 40°48' W 073°54'3 6.4
2017-Jun-22 18:30N 40°46' W 073°57'3 6.2
2017-Jun-22 18:01N 40°43' W 073°58'2 4.2
2017-Jun-22 17:31N 40°43' W 074°01'0 0.0
2017-Jun-22 16:58N 40°43' W 074°01'0 0.0
2017-Jun-22 16:29N 40°43' W 074°01'0 0.0
2017-Jun-22 15:59N 40°43' W 074°01'0 0.0
2017-Jun-22 15:29N 40°43' W 074°01'0 0.0
2017-Jun-22 14:58N 40°43' W 074°01'0 0.0
2017-Jun-22 14:29N 40°43' W 074°01'0 0.0
2017-Jun-22 13:29N 40°43' W 074°01'0 0.0
2017-Jun-22 12:59N 40°43' W 074°01'0 0.0
2017-Jun-22 12:29N 40°43' W 074°01'0 0.0
2017-Jun-22 11:58N 40°43' W 074°01'0 0.0
2017-Jun-22 11:29N 40°43' W 074°01'0 0.0
2017-Jun-22 10:59N 40°43' W 074°01'0 0.0
2017-Jun-22 10:29N 40°43' W 074°01'0 0.0
2017-Jun-22 09:58N 40°43' W 074°01'0 0.0
2017-Jun-22 09:29N 40°43' W 074°01'0 0.0
2017-Jun-22 08:59N 40°43' W 074°01'0 0.0
2017-Jun-22 08:29N 40°43' W 074°01'0 0.0
2017-Jun-22 07:59N 40°43' W 074°01'0 0.0
2017-Jun-22 07:28N 40°43' W 074°01'0 0.0
2017-Jun-22 06:58N 40°43' W 074°01'0 0.0
2017-Jun-22 06:28N 40°43' W 074°01'0 0.0
2017-Jun-22 05:58N 40°43' W 074°01'0 0.0
2017-Jun-22 05:28N 40°43' W 074°01'0 0.0
2017-Jun-22 04:58N 40°43' W 074°01'0 0.0
2017-Jun-22 04:29N 40°43' W 074°01'0 0.0
2017-Jun-22 03:58N 40°43' W 074°01'0 0.0
2017-Jun-22 03:28N 40°43' W 074°01'0 0.1
2017-Jun-22 02:59N 40°43' W 074°01'0 0.0
2017-Jun-22 02:28N 40°43' W 074°01'0 0.1
2017-Jun-22 01:58N 40°43' W 074°01'0 0.1
2017-Jun-22 01:28N 40°43' W 074°01'0 0.0
2017-Jun-22 00:59N 40°43' W 074°01'0 0.0
2017-Jun-22 00:28N 40°43' W 074°01'0 0.0
2017-Jun-21 23:59N 40°43' W 074°01'0 0.0
2017-Jun-21 23:28N 40°43' W 074°01'0 0.0
2017-Jun-21 22:59N 40°43' W 074°01'0 0.0
2017-Jun-21 22:29N 40°43' W 074°01'0 0.0
2017-Jun-21 21:59N 40°43' W 074°01'0 0.0
2017-Jun-21 21:29N 40°43' W 074°01'0 0.0
2017-Jun-21 20:59N 40°43' W 074°01'0 0.0
2017-Jun-21 20:28N 40°43' W 074°01'0 0.0
2017-Jun-21 19:58N 40°43' W 074°01'0 0.0
2017-Jun-21 19:29N 40°43' W 074°01'0 0.0
2017-Jun-21 18:58N 40°43' W 074°01'0 0.0
2017-Jun-21 18:28N 40°43' W 074°01'0 0.0
2017-Jun-21 17:58N 40°43' W 074°01'0 0.0
2017-Jun-21 17:28N 40°43' W 074°01'0 0.0
2017-Jun-21 16:58N 40°43' W 074°01'0 0.0
2017-Jun-21 16:29N 40°43' W 074°01'0 0.0
2017-Jun-21 15:58N 40°43' W 074°01'0 0.0
2017-Jun-21 15:29N 40°43' W 074°01'0 0.0
2017-Jun-21 14:58N 40°43' W 074°01'0 0.0
2017-Jun-21 14:29N 40°43' W 074°01'0 0.0
2017-Jun-21 13:29N 40°43' W 074°01'0 0.0
2017-Jun-21 12:58N 40°43' W 074°01'0 0.0
2017-Jun-21 12:29N 40°43' W 074°01'0 0.0
2017-Jun-21 11:59N 40°43' W 074°01'0 0.0
2017-Jun-21 11:29N 40°43' W 074°01'0 0.0
2017-Jun-21 10:59N 40°43' W 074°01'0 0.0
2017-Jun-21 10:29N 40°43' W 074°01'0 0.0
2017-Jun-21 09:59N 40°43' W 074°01'0 0.0
2017-Jun-21 09:28N 40°43' W 074°01'0 0.0
2017-Jun-21 08:59N 40°43' W 074°01'0 0.0
2017-Jun-21 08:28N 40°43' W 074°01'0 0.0
2017-Jun-21 07:58N 40°43' W 074°01'0 0.0
2017-Jun-21 07:28N 40°43' W 074°01'0 0.0
2017-Jun-21 06:58N 40°43' W 074°01'0 0.0
2017-Jun-21 06:28N 40°43' W 074°01'0 0.0
2017-Jun-21 05:58N 40°43' W 074°01'0 0.0
2017-Jun-21 05:28N 40°43' W 074°01'0 0.0
2017-Jun-21 04:58N 40°43' W 074°01'0 0.0
2017-Jun-21 04:28N 40°43' W 074°01'0 0.0
2017-Jun-21 03:58N 40°43' W 074°01'0 0.0
2017-Jun-21 03:28N 40°43' W 074°01'0 0.0
2017-Jun-21 02:58N 40°43' W 074°01'0 0.0
2017-Jun-21 02:28N 40°43' W 074°01'0 0.0
2017-Jun-21 02:01N 40°43' W 074°01'1 1.3
2017-Jun-21 01:31N 40°43' W 074°01'1 2.3
2017-Jun-21 01:00N 40°45' W 074°01'2 4.3
2017-Jun-21 00:31N 40°42' W 074°02'1 2.7
2017-Jun-21 00:01N 40°41' W 074°03'2 3.8
2017-Jun-20 23:31N 40°43' W 074°01'0 0.0
2017-Jun-20 22:59N 40°43' W 074°01'0 0.0
2017-Jun-20 22:28N 40°43' W 074°01'0 0.0
2017-Jun-20 21:59N 40°43' W 074°01'0 0.0
2017-Jun-20 21:29N 40°43' W 074°01'0 0.0
2017-Jun-20 20:59N 40°43' W 074°01'0 0.0
2017-Jun-20 20:28N 40°43' W 074°01'0 0.0
2017-Jun-20 19:58N 40°43' W 074°01'0 0.0
2017-Jun-20 19:29N 40°43' W 074°01'0 0.0
2017-Jun-20 18:59N 40°43' W 074°01'0 0.0
2017-Jun-20 18:29N 40°43' W 074°01'0 0.0
2017-Jun-20 17:58N 40°43' W 074°01'0 0.0
2017-Jun-20 17:28N 40°43' W 074°01'0 0.0
2017-Jun-20 16:59N 40°43' W 074°01'0 0.0
2017-Jun-20 16:28N 40°43' W 074°01'0 0.0
2017-Jun-20 15:58N 40°43' W 074°01'0 0.0
2017-Jun-20 15:29N 40°43' W 074°01'1 1.3
2017-Jun-20 15:01N 40°42' W 074°01'4 8.4
2017-Jun-20 14:30N 40°45' W 073°58'9 9.3
2017-Jun-20 13:30N 40°50' W 073°47'  
Track history (hours):
 
Tides and Currents Weather Stations Pressure Air Temp Water Temp Dewpoint Dewpoint Depression Visibility Wind Speed Wind Dir Waves Ship Positions

Knickerbocker

Owner: Christopher Corp., Newport, RI. More information available from US FCC via Universal Licensing System and Coast Guard Vessel Documentation Center.

Last reported at 2017-Jun-22 19:46 UTC. Time now 2017-Jun-26 14:07 UTC.
Position N 40°50' W 073°46'.

Length 36 m; draft 3.6 m.

Type: Sailing vessel. MMSI: 367079960.

Date/timePositionNaut miles runAvg speedWind from/ knotsBaromVisibWave heightAir tempDewpointWater temp
2017-Jun-22 19:46N 40°50' W 073°46'2 8.9
2017-Jun-22 19:29N 40°48' W 073°48'4 9.2
2017-Jun-22 19:00N 40°48' W 073°54'3 6.4
2017-Jun-22 18:30N 40°46' W 073°57'3 6.2
2017-Jun-22 18:01N 40°43' W 073°58'2 4.2
2017-Jun-22 17:31N 40°43' W 074°01'0 0.0
2017-Jun-22 16:58N 40°43' W 074°01'0 0.0
2017-Jun-22 16:29N 40°43' W 074°01'0 0.0
2017-Jun-22 15:59N 40°43' W 074°01'0 0.0
2017-Jun-22 15:29N 40°43' W 074°01'0 0.0
2017-Jun-22 14:58N 40°43' W 074°01'0 0.0
2017-Jun-22 14:29N 40°43' W 074°01'0 0.0
2017-Jun-22 13:29N 40°43' W 074°01'0 0.0
2017-Jun-22 12:59N 40°43' W 074°01'0 0.0
2017-Jun-22 12:29N 40°43' W 074°01'0 0.0
2017-Jun-22 11:58N 40°43' W 074°01'0 0.0
2017-Jun-22 11:29N 40°43' W 074°01'0 0.0
2017-Jun-22 10:59N 40°43' W 074°01'0 0.0
2017-Jun-22 10:29N 40°43' W 074°01'0 0.0
2017-Jun-22 09:58N 40°43' W 074°01'0 0.0
2017-Jun-22 09:29N 40°43' W 074°01'0 0.0
2017-Jun-22 08:59N 40°43' W 074°01'0 0.0
2017-Jun-22 08:29N 40°43' W 074°01'0 0.0
2017-Jun-22 07:59N 40°43' W 074°01'0 0.0
2017-Jun-22 07:28N 40°43' W 074°01'0 0.0
2017-Jun-22 06:58N 40°43' W 074°01'0 0.0
2017-Jun-22 06:28N 40°43' W 074°01'0 0.0
2017-Jun-22 05:58N 40°43' W 074°01'0 0.0
2017-Jun-22 05:28N 40°43' W 074°01'0 0.0
2017-Jun-22 04:58N 40°43' W 074°01'0 0.0
2017-Jun-22 04:29N 40°43' W 074°01'0 0.0
2017-Jun-22 03:58N 40°43' W 074°01'0 0.0
2017-Jun-22 03:28N 40°43' W 074°01'0 0.1
2017-Jun-22 02:59N 40°43' W 074°01'0 0.0
2017-Jun-22 02:28N 40°43' W 074°01'0 0.1
2017-Jun-22 01:58N 40°43' W 074°01'0 0.1
2017-Jun-22 01:28N 40°43' W 074°01'0 0.0
2017-Jun-22 00:59N 40°43' W 074°01'0 0.0
2017-Jun-22 00:28N 40°43' W 074°01'0 0.0
2017-Jun-21 23:59N 40°43' W 074°01'0 0.0
2017-Jun-21 23:28N 40°43' W 074°01'0 0.0
2017-Jun-21 22:59N 40°43' W 074°01'0 0.0
2017-Jun-21 22:29N 40°43' W 074°01'0 0.0
2017-Jun-21 21:59N 40°43' W 074°01'0 0.0
2017-Jun-21 21:29N 40°43' W 074°01'0 0.0
2017-Jun-21 20:59N 40°43' W 074°01'0 0.0
2017-Jun-21 20:28N 40°43' W 074°01'0 0.0
2017-Jun-21 19:58N 40°43' W 074°01'0 0.0
2017-Jun-21 19:29N 40°43' W 074°01'0 0.0
2017-Jun-21 18:58N 40°43' W 074°01'0 0.0
2017-Jun-21 18:28N 40°43' W 074°01'0 0.0
2017-Jun-21 17:58N 40°43' W 074°01'0 0.0
2017-Jun-21 17:28N 40°43' W 074°01'0 0.0
2017-Jun-21 16:58N 40°43' W 074°01'0 0.0
2017-Jun-21 16:29N 40°43' W 074°01'0 0.0
2017-Jun-21 15:58N 40°43' W 074°01'0 0.0
2017-Jun-21 15:29N 40°43' W 074°01'0 0.0
2017-Jun-21 14:58N 40°43' W 074°01'0 0.0
2017-Jun-21 14:29N 40°43' W 074°01'0 0.0
2017-Jun-21 13:29N 40°43' W 074°01'0 0.0
2017-Jun-21 12:58N 40°43' W 074°01'0 0.0
2017-Jun-21 12:29N 40°43' W 074°01'0 0.0
2017-Jun-21 11:59N 40°43' W 074°01'0 0.0
2017-Jun-21 11:29N 40°43' W 074°01'0 0.0
2017-Jun-21 10:59N 40°43' W 074°01'0 0.0
2017-Jun-21 10:29N 40°43' W 074°01'0 0.0
2017-Jun-21 09:59N 40°43' W 074°01'0 0.0
2017-Jun-21 09:28N 40°43' W 074°01'0 0.0
2017-Jun-21 08:59N 40°43' W 074°01'0 0.0
2017-Jun-21 08:28N 40°43' W 074°01'0 0.0
2017-Jun-21 07:58N 40°43' W 074°01'0 0.0
2017-Jun-21 07:28N 40°43' W 074°01'0 0.0
2017-Jun-21 06:58N 40°43' W 074°01'0 0.0
2017-Jun-21 06:28N 40°43' W 074°01'0 0.0
2017-Jun-21 05:58N 40°43' W 074°01'0 0.0
2017-Jun-21 05:28N 40°43' W 074°01'0 0.0
2017-Jun-21 04:58N 40°43' W 074°01'0 0.0
2017-Jun-21 04:28N 40°43' W 074°01'0 0.0
2017-Jun-21 03:58N 40°43' W 074°01'0 0.0
2017-Jun-21 03:28N 40°43' W 074°01'0 0.0
2017-Jun-21 02:58N 40°43' W 074°01'0 0.0
2017-Jun-21 02:28N 40°43' W 074°01'0 0.0
2017-Jun-21 02:01N 40°43' W 074°01'1 1.3
2017-Jun-21 01:31N 40°43' W 074°01'1 2.3
2017-Jun-21 01:00N 40°45' W 074°01'2 4.3
2017-Jun-21 00:31N 40°42' W 074°02'1 2.7
2017-Jun-21 00:01N 40°41' W 074°03'2 3.8
2017-Jun-20 23:31N 40°43' W 074°01'0 0.0
2017-Jun-20 22:59N 40°43' W 074°01'0 0.0
2017-Jun-20 22:28N 40°43' W 074°01'0 0.0
2017-Jun-20 21:59N 40°43' W 074°01'0 0.0
2017-Jun-20 21:29N 40°43' W 074°01'0 0.0
2017-Jun-20 20:59N 40°43' W 074°01'0 0.0
2017-Jun-20 20:28N 40°43' W 074°01'0 0.0
2017-Jun-20 19:58N 40°43' W 074°01'0 0.0
2017-Jun-20 19:29N 40°43' W 074°01'0 0.0
2017-Jun-20 18:59N 40°43' W 074°01'0 0.0
2017-Jun-20 18:29N 40°43' W 074°01'0 0.0
2017-Jun-20 17:58N 40°43' W 074°01'0 0.0
2017-Jun-20 17:28N 40°43' W 074°01'0 0.0
2017-Jun-20 16:59N 40°43' W 074°01'0 0.0
2017-Jun-20 16:28N 40°43' W 074°01'0 0.0
2017-Jun-20 15:58N 40°43' W 074°01'0 0.0
2017-Jun-20 15:29N 40°43' W 074°01'1 1.3
2017-Jun-20 15:01N 40°42' W 074°01'4 8.4
2017-Jun-20 14:30N 40°45' W 073°58'9 9.3
2017-Jun-20 13:30N 40°50' W 073°47'  

Dump ship's entire track history